createdAt,value
2016-11-03T00:00:22.168Z,7.05
2016-11-03T00:00:48.678Z,7.02
2016-11-03T00:01:15.248Z,7.02
2016-11-03T00:01:49.691Z,6.98
2016-11-03T00:02:13.299Z,7.04
2016-11-03T00:02:37.267Z,7.09
2016-11-03T00:02:58.993Z,7.13
2016-11-03T00:03:25.488Z,7.15
2016-11-03T00:03:52.010Z,7.11
2016-11-03T00:04:16.550Z,7.09
2016-11-03T00:04:38.310Z,7.09
2016-11-03T00:05:02.888Z,7.05
2016-11-03T00:06:05.633Z,6.99
2016-11-03T00:06:38.872Z,7.00
2016-11-03T00:07:05.358Z,7.02
2016-11-03T00:07:39.222Z,7.02
2016-11-03T00:08:07.904Z,7.05
2016-11-03T00:09:06.315Z,6.94
2016-11-03T00:09:35.156Z,6.92
2016-11-03T00:10:03.576Z,6.93
2016-11-03T00:10:44.416Z,6.95
2016-11-03T00:11:28.246Z,6.92
2016-11-03T00:11:54.257Z,6.89
2016-11-03T00:13:39.729Z,6.82
2016-11-03T00:14:01.344Z,6.84
2016-11-03T00:14:30.735Z,6.83
2016-11-03T00:15:31.118Z,6.74
2016-11-03T00:16:37.876Z,6.60
2016-11-03T00:17:47.928Z,6.72
2016-11-03T00:18:39.576Z,6.70
2016-11-03T00:18:47.784Z,6.72
2016-11-03T00:19:46.510Z,6.79
2016-11-03T00:20:18.289Z,6.74
2016-11-03T00:20:44.610Z,6.70
2016-11-03T00:21:14.109Z,6.68
2016-11-03T00:21:40.672Z,6.73
2016-11-03T00:22:07.229Z,6.72
2016-11-03T00:22:35.765Z,6.70
2016-11-03T00:23:37.396Z,6.61
2016-11-03T00:23:41.361Z,6.66
2016-11-03T00:24:04.206Z,6.54
2016-11-03T00:24:43.560Z,6.48
2016-11-03T00:25:11.905Z,6.62
2016-11-03T00:25:38.251Z,6.65
2016-11-03T00:26:36.715Z,6.67
2016-11-03T00:27:07.855Z,6.67
2016-11-03T00:27:42.670Z,6.76
2016-11-03T00:28:17.506Z,6.84
2016-11-03T00:28:43.874Z,6.73
2016-11-03T00:29:17.756Z,6.72
2016-11-03T00:31:42.395Z,6.51
2016-11-03T00:31:43.841Z,6.65
2016-11-03T00:32:11.720Z,6.55
2016-11-03T00:33:27.438Z,6.60
2016-11-03T00:34:01.103Z,6.57
2016-11-03T00:34:33.086Z,6.56
2016-11-03T00:34:59.415Z,6.60
2016-11-03T00:35:23.788Z,6.59
2016-11-03T00:36:00.485Z,6.59
2016-11-03T00:36:36.469Z,6.67
2016-11-03T00:37:34.568Z,6.63
2016-11-03T00:38:03.630Z,6.66
2016-11-03T00:38:35.368Z,6.69
2016-11-03T00:38:57.061Z,6.73
2016-11-03T00:39:28.541Z,6.70
2016-11-03T00:40:29.005Z,6.78
2016-11-03T00:41:29.395Z,6.78
2016-11-03T00:41:57.968Z,6.77
2016-11-03T00:44:06.665Z,6.76
2016-11-03T00:44:40.213Z,6.82
2016-11-03T00:45:09.047Z,6.82
2016-11-03T00:45:52.853Z,6.89
2016-11-03T00:47:24.603Z,6.85
2016-11-03T00:48:28.362Z,6.81
2016-11-03T00:48:59.515Z,6.82
2016-11-03T00:49:28.230Z,6.83
2016-11-03T00:50:39.247Z,6.86
2016-11-03T00:51:10.284Z,6.89
2016-11-03T00:52:11.303Z,7.02
2016-11-03T00:52:45.151Z,7.05
2016-11-03T00:53:17.015Z,7.07
2016-11-03T00:53:45.752Z,7.04
2016-11-03T00:54:19.715Z,7.08
2016-11-03T00:54:50.818Z,7.12
2016-11-03T00:55:12.538Z,7.15
2016-11-03T00:55:45.679Z,7.13
2016-11-03T00:56:22.146Z,7.16
2016-11-03T00:56:51.052Z,7.19
2016-11-03T00:57:23.385Z,7.15
2016-11-03T00:57:59.117Z,7.14
2016-11-03T00:58:23.469Z,7.13
2016-11-03T00:58:49.972Z,7.11
2016-11-03T00:59:23.800Z,7.03
2016-11-03T01:00:56.992Z,6.97
2016-11-03T01:01:18.724Z,6.99
2016-11-03T01:01:50.032Z,7.00
2016-11-03T01:02:16.368Z,7.01
2016-11-03T01:02:38.022Z,6.98
2016-11-03T01:03:07.568Z,6.99
2016-11-03T01:04:45.657Z,7.08
2016-11-03T01:05:12.164Z,7.12
2016-11-03T01:05:48.442Z,7.15
2016-11-03T01:06:15.278Z,7.13
2016-11-03T01:06:41.635Z,7.08
2016-11-03T01:07:03.352Z,7.10
2016-11-03T01:07:39.294Z,7.11
2016-11-03T01:08:08.132Z,7.12
2016-11-03T01:08:34.951Z,7.10
2016-11-03T01:09:09.847Z,7.13
2016-11-03T01:09:38.650Z,7.11
2016-11-03T01:10:44.841Z,7.12
2016-11-03T01:11:10.179Z,7.12
2016-11-03T01:11:44.500Z,7.12
2016-11-03T01:12:10.384Z,7.12
2016-11-03T01:12:43.693Z,7.14
2016-11-03T01:13:08.045Z,7.15
2016-11-03T01:13:41.893Z,7.13
2016-11-03T01:14:08.252Z,7.11
2016-11-03T01:15:05.298Z,7.09
2016-11-03T01:16:14.238Z,6.94
2016-11-03T01:16:45.058Z,6.94
2016-11-03T01:17:42.303Z,7.02
2016-11-03T01:18:08.689Z,7.00
2016-11-03T01:18:30.406Z,6.98
2016-11-03T01:18:52.126Z,6.95
2016-11-03T01:19:13.857Z,7.00
2016-11-03T01:19:35.617Z,7.00
2016-11-03T01:19:57.390Z,7.00
2016-11-03T01:20:19.120Z,7.00
2016-11-03T01:20:45.618Z,6.93
2016-11-03T01:21:07.344Z,6.94
2016-11-03T01:21:33.728Z,7.00
2016-11-03T01:22:00.047Z,6.96
2016-11-03T01:22:21.789Z,6.96
2016-11-03T01:22:43.524Z,6.98
2016-11-03T01:23:05.257Z,6.95
2016-11-03T01:23:29.597Z,6.90
2016-11-03T01:23:51.328Z,6.94
2016-11-03T01:24:18.896Z,6.94
2016-11-03T01:24:43.210Z,6.95
2016-11-03T01:25:09.748Z,6.94
2016-11-03T01:25:36.122Z,6.95
2016-11-03T01:26:00.090Z,6.97
2016-11-03T01:26:28.585Z,6.98
2016-11-03T01:26:50.336Z,6.98
2016-11-03T01:27:14.689Z,7.03
2016-11-03T01:27:44.173Z,7.03
2016-11-03T01:28:08.502Z,7.04
2016-11-03T01:28:32.319Z,7.03
2016-11-03T01:29:01.695Z,7.03
2016-11-03T01:29:30.732Z,7.02
2016-11-03T01:29:55.374Z,6.99
2016-11-03T01:30:21.562Z,6.97
2016-11-03T01:30:47.316Z,7.02
2016-11-03T01:31:11.275Z,6.96
2016-11-03T01:31:35.598Z,6.92
2016-11-03T01:32:07.066Z,6.88
2016-11-03T01:32:40.929Z,6.90
2016-11-03T01:33:04.512Z,6.93
2016-11-03T01:33:33.859Z,6.92
2016-11-03T01:33:57.829Z,6.91
2016-11-03T01:34:28.929Z,6.92
2016-11-03T01:34:55.447Z,6.93
2016-11-03T01:35:17.208Z,6.95
2016-11-03T01:35:43.551Z,6.95
2016-11-03T01:36:05.281Z,6.94
2016-11-03T01:37:08.390Z,6.84
2016-11-03T01:37:30.194Z,6.80
2016-11-03T01:37:51.917Z,6.83
2016-11-03T01:38:13.652Z,6.87
2016-11-03T01:38:35.419Z,6.90
2016-11-03T01:38:57.182Z,6.92
2016-11-03T01:39:18.902Z,6.94
2016-11-03T01:39:40.622Z,6.86
2016-11-03T01:40:02.341Z,6.82
2016-11-03T01:40:24.075Z,6.83
2016-11-03T01:40:45.796Z,6.85
2016-11-03T01:41:07.717Z,6.90
2016-11-03T01:41:29.440Z,6.93
2016-11-03T01:41:51.175Z,6.89
2016-11-03T01:42:12.985Z,6.92
2016-11-03T01:42:34.704Z,6.86
2016-11-03T01:42:56.422Z,6.86
2016-11-03T01:43:18.156Z,6.89
2016-11-03T01:43:39.881Z,6.87
2016-11-03T01:44:01.622Z,6.80
2016-11-03T01:44:23.372Z,6.79
2016-11-03T01:44:45.091Z,6.81
2016-11-03T01:45:06.822Z,6.83
2016-11-03T01:45:28.535Z,6.81
2016-11-03T01:45:50.257Z,6.87
2016-11-03T01:46:11.974Z,6.85
2016-11-03T01:46:33.690Z,6.77
2016-11-03T01:46:55.417Z,6.80
2016-11-03T01:47:17.133Z,6.83
2016-11-03T01:47:38.858Z,6.78
2016-11-03T01:48:00.580Z,6.72
2016-11-03T01:48:22.322Z,6.71
2016-11-03T01:48:44.041Z,6.72
2016-11-03T01:49:05.780Z,6.72
2016-11-03T01:49:30.512Z,6.76
2016-11-03T01:49:52.251Z,6.77
2016-11-03T01:50:16.577Z,6.78
2016-11-03T01:50:43.089Z,6.84
2016-11-03T01:51:04.820Z,6.82
2016-11-03T01:51:31.317Z,6.81
2016-11-03T01:51:53.056Z,6.82
2016-11-03T01:52:14.794Z,6.82
2016-11-03T01:52:43.226Z,6.82
2016-11-03T01:53:04.880Z,6.79
2016-11-03T01:53:26.632Z,6.79
2016-11-03T01:53:55.762Z,6.82
2016-11-03T01:54:17.541Z,6.82
2016-11-03T01:54:39.263Z,6.83
2016-11-03T01:55:03.234Z,6.80
2016-11-03T01:55:24.951Z,6.83
2016-11-03T01:55:46.689Z,6.90
2016-11-03T01:56:15.246Z,6.90
2016-11-03T01:56:49.126Z,6.88
2016-11-03T01:57:27.468Z,6.87
2016-11-03T01:57:49.209Z,6.83
2016-11-03T01:58:15.725Z,6.88
2016-11-03T01:58:42.228Z,6.93
2016-11-03T01:59:03.956Z,6.89
2016-11-03T01:59:57.019Z,6.80
2016-11-03T02:00:18.750Z,6.81
2016-11-03T02:01:16.961Z,6.78
2016-11-03T02:01:43.315Z,6.77
2016-11-03T02:02:17.276Z,6.73
2016-11-03T02:02:43.042Z,6.71
2016-11-03T02:03:12.039Z,6.70
2016-11-03T02:03:36.193Z,6.75
2016-11-03T02:04:00.141Z,6.76
2016-11-03T02:04:59.869Z,6.78
2016-11-03T02:06:24.964Z,6.71
2016-11-03T02:07:03.326Z,6.63
2016-11-03T02:07:29.703Z,6.60
2016-11-03T02:08:54.952Z,6.65
2016-11-03T02:09:23.823Z,6.61
2016-11-03T02:09:52.722Z,6.58
2016-11-03T02:10:24.771Z,6.59
2016-11-03T02:11:07.929Z,6.60
2016-11-03T02:11:34.255Z,6.61
2016-11-03T02:12:01.108Z,6.57
2016-11-03T02:12:24.385Z,6.53
2016-11-03T02:12:48.106Z,6.49
2016-11-03T02:13:58.651Z,6.47
2016-11-03T02:14:28.788Z,6.42
2016-11-03T02:14:57.000Z,6.39
2016-11-03T02:15:25.954Z,6.43
2016-11-03T02:15:57.310Z,6.55
2016-11-03T02:16:26.722Z,6.59
2016-11-03T02:16:58.018Z,6.59
2016-11-03T02:17:19.668Z,6.57
2016-11-03T02:17:46.025Z,6.54
2016-11-03T02:18:16.999Z,6.53
2016-11-03T02:19:17.185Z,6.46
2016-11-03T02:20:10.511Z,6.57
2016-11-03T02:20:40.127Z,6.50
2016-11-03T02:21:35.616Z,6.51
2016-11-03T02:22:02.130Z,6.47
2016-11-03T02:22:23.841Z,6.49
2016-11-03T02:22:45.585Z,6.56
2016-11-03T02:23:07.320Z,6.57
2016-11-03T02:23:31.626Z,6.60
2016-11-03T02:23:57.968Z,6.64
2016-11-03T02:24:19.689Z,6.56
2016-11-03T02:24:41.429Z,6.56
2016-11-03T02:25:03.157Z,6.54
2016-11-03T02:25:24.918Z,6.50
2016-11-03T02:25:46.629Z,6.45
2016-11-03T02:26:08.377Z,6.46
2016-11-03T02:26:30.111Z,6.45
2016-11-03T02:26:51.858Z,6.47
2016-11-03T02:27:13.581Z,6.46
2016-11-03T02:27:35.314Z,6.46
2016-11-03T02:27:57.048Z,6.43
2016-11-03T02:28:18.774Z,6.46
2016-11-03T02:28:43.218Z,6.47
2016-11-03T02:29:04.981Z,6.47
2016-11-03T02:29:26.713Z,6.39
2016-11-03T02:29:48.472Z,6.34
2016-11-03T02:30:10.214Z,6.39
2016-11-03T02:30:31.953Z,6.44
2016-11-03T02:30:53.677Z,6.39
2016-11-03T02:31:15.420Z,6.34
2016-11-03T02:31:37.146Z,6.32
2016-11-03T02:31:59.157Z,6.38
2016-11-03T02:32:20.901Z,6.37
2016-11-03T02:32:42.633Z,6.37
2016-11-03T02:33:04.375Z,6.41
2016-11-03T02:33:26.096Z,6.41
2016-11-03T02:33:47.821Z,6.37
2016-11-03T02:34:09.546Z,6.37
2016-11-03T02:34:31.295Z,6.37
2016-11-03T02:34:53.031Z,6.40
2016-11-03T02:35:14.792Z,6.36
2016-11-03T02:35:36.513Z,6.38
2016-11-03T02:35:58.246Z,6.39
2016-11-03T02:36:19.955Z,6.42
2016-11-03T02:36:41.711Z,6.39
2016-11-03T02:37:03.432Z,6.41
2016-11-03T02:37:25.207Z,6.39
2016-11-03T02:37:51.710Z,6.41
2016-11-03T02:38:13.431Z,6.37
2016-11-03T02:38:35.162Z,6.36
2016-11-03T02:38:56.892Z,6.38
2016-11-03T02:39:18.601Z,6.35
2016-11-03T02:39:40.337Z,6.29
2016-11-03T02:40:02.064Z,6.22
2016-11-03T02:40:23.802Z,6.24
2016-11-03T02:40:45.518Z,6.27
2016-11-03T02:41:07.280Z,6.30
2016-11-03T02:41:29.004Z,6.31
2016-11-03T02:41:50.729Z,6.37
2016-11-03T02:42:12.459Z,6.37
2016-11-03T02:42:34.199Z,6.36
2016-11-03T02:42:55.923Z,6.42
2016-11-03T02:43:17.656Z,6.46
2016-11-03T02:43:39.376Z,6.44
2016-11-03T02:44:01.098Z,6.43
2016-11-03T02:44:22.819Z,6.41
2016-11-03T02:44:44.536Z,6.40
2016-11-03T02:45:06.252Z,6.38
2016-11-03T02:45:27.972Z,6.37
2016-11-03T02:45:49.696Z,6.37
2016-11-03T02:46:11.431Z,6.35
2016-11-03T02:46:33.151Z,6.36
2016-11-03T02:46:54.883Z,6.38
2016-11-03T02:47:16.609Z,6.41
2016-11-03T02:47:38.329Z,6.37
2016-11-03T02:48:00.049Z,6.35
2016-11-03T02:48:21.798Z,6.35
2016-11-03T02:48:43.521Z,6.33
2016-11-03T02:49:05.239Z,6.23
2016-11-03T02:49:26.966Z,6.13
2016-11-03T02:49:48.675Z,6.09
2016-11-03T02:50:10.405Z,6.05
2016-11-03T02:50:32.106Z,6.10
2016-11-03T02:50:53.842Z,6.04
2016-11-03T02:51:15.572Z,5.98
2016-11-03T02:51:37.301Z,5.97
2016-11-03T02:51:59.019Z,6.06
2016-11-03T02:52:20.742Z,6.08
2016-11-03T02:52:42.471Z,6.11
2016-11-03T02:53:04.196Z,6.12
2016-11-03T02:53:25.915Z,6.14
2016-11-03T02:53:47.648Z,6.12
2016-11-03T02:54:09.374Z,6.17
2016-11-03T02:54:31.095Z,6.21
2016-11-03T02:54:52.817Z,6.24
2016-11-03T02:55:14.574Z,6.24
2016-11-03T02:55:36.299Z,6.21
2016-11-03T02:55:58.018Z,6.21
2016-11-03T02:56:19.734Z,6.18
2016-11-03T02:56:41.453Z,6.17
2016-11-03T02:57:03.172Z,6.16
2016-11-03T02:57:24.901Z,6.21
2016-11-03T02:57:46.610Z,6.23
2016-11-03T02:58:08.330Z,6.21
2016-11-03T02:58:30.056Z,6.23
2016-11-03T02:58:51.804Z,6.25
2016-11-03T02:59:13.528Z,6.26
2016-11-03T02:59:35.251Z,6.26
2016-11-03T02:59:56.980Z,6.24
2016-11-03T03:00:18.719Z,6.30
2016-11-03T03:00:40.441Z,6.29
2016-11-03T03:01:02.235Z,6.30
2016-11-03T03:01:23.952Z,6.29
2016-11-03T03:01:45.690Z,6.30
2016-11-03T03:02:07.423Z,6.30
2016-11-03T03:02:29.148Z,6.35
2016-11-03T03:02:53.125Z,6.35
2016-11-03T03:03:16.901Z,6.34
2016-11-03T03:03:40.646Z,6.32
2016-11-03T03:04:04.597Z,6.28
2016-11-03T03:04:26.330Z,6.20
2016-11-03T03:04:48.054Z,6.16
2016-11-03T03:05:45.821Z,6.19
2016-11-03T03:06:07.540Z,6.14
2016-11-03T03:06:31.678Z,6.10
2016-11-03T03:06:53.413Z,6.09
2016-11-03T03:07:15.143Z,6.03
2016-11-03T03:07:39.081Z,6.02
2016-11-03T03:08:00.819Z,6.02
2016-11-03T03:08:22.544Z,6.02
2016-11-03T03:08:49.065Z,6.05
2016-11-03T03:09:10.781Z,6.03
2016-11-03T03:09:59.013Z,5.99
2016-11-03T03:10:20.751Z,6.02
2016-11-03T03:10:42.471Z,6.05
2016-11-03T03:11:04.191Z,6.09
2016-11-03T03:11:25.935Z,6.04
2016-11-03T03:11:47.640Z,6.06
2016-11-03T03:12:09.394Z,6.06
2016-11-03T03:12:31.116Z,6.05
2016-11-03T03:12:52.830Z,6.03
2016-11-03T03:13:14.549Z,5.91
2016-11-03T03:13:36.268Z,5.92
2016-11-03T03:13:57.995Z,6.00
2016-11-03T03:14:19.735Z,6.06
2016-11-03T03:14:41.466Z,6.11
2016-11-03T03:15:03.186Z,6.14
2016-11-03T03:15:24.914Z,6.07
2016-11-03T03:15:47.637Z,5.95
2016-11-03T03:16:09.356Z,6.01
2016-11-03T03:16:31.095Z,6.03
2016-11-03T03:16:52.823Z,6.07
2016-11-03T03:17:14.544Z,6.02
2016-11-03T03:17:36.267Z,6.00
2016-11-03T03:17:57.997Z,5.99
2016-11-03T03:18:19.722Z,6.01
2016-11-03T03:18:41.441Z,6.01
2016-11-03T03:19:03.174Z,6.05
2016-11-03T03:19:24.905Z,5.97
2016-11-03T03:19:46.623Z,5.93
2016-11-03T03:20:08.349Z,5.93
2016-11-03T03:20:30.071Z,5.93
2016-11-03T03:20:51.798Z,5.92
2016-11-03T03:21:13.526Z,5.98
2016-11-03T03:21:35.249Z,6.00
2016-11-03T03:21:56.962Z,5.98
2016-11-03T03:22:18.681Z,5.96
2016-11-03T03:22:40.406Z,5.91
2016-11-03T03:23:02.133Z,5.90
2016-11-03T03:23:23.843Z,5.87
2016-11-03T03:23:45.564Z,5.84
2016-11-03T03:24:07.282Z,5.84
2016-11-03T03:24:29.002Z,5.87
2016-11-03T03:24:50.719Z,5.85
2016-11-03T03:25:12.448Z,5.84
2016-11-03T03:25:34.157Z,5.81
2016-11-03T03:25:55.885Z,5.82
2016-11-03T03:26:17.604Z,5.87
2016-11-03T03:26:39.316Z,5.94
2016-11-03T03:27:01.038Z,5.96
2016-11-03T03:27:22.762Z,5.97
2016-11-03T03:27:44.516Z,5.93
2016-11-03T03:28:06.244Z,5.89
2016-11-03T03:28:27.955Z,5.89
2016-11-03T03:28:49.684Z,5.90
2016-11-03T03:29:11.415Z,5.86
2016-11-03T03:29:33.151Z,5.83
2016-11-03T03:29:54.876Z,5.76
2016-11-03T03:30:16.591Z,5.76
2016-11-03T03:30:38.310Z,5.78
2016-11-03T03:31:00.028Z,5.79
2016-11-03T03:31:21.755Z,5.84
2016-11-03T03:31:43.487Z,5.92
2016-11-03T03:32:05.210Z,5.97
2016-11-03T03:32:26.938Z,6.01
2016-11-03T03:32:48.658Z,6.08
2016-11-03T03:33:10.384Z,6.06
2016-11-03T03:33:32.106Z,6.04
2016-11-03T03:33:53.842Z,6.03
2016-11-03T03:34:15.594Z,6.00
2016-11-03T03:34:37.325Z,5.99
2016-11-03T03:34:59.045Z,5.98
2016-11-03T03:35:20.774Z,5.93
2016-11-03T03:35:42.499Z,5.89
2016-11-03T03:36:04.222Z,5.89
2016-11-03T03:36:25.949Z,5.92
2016-11-03T03:36:47.682Z,5.93
2016-11-03T03:37:09.400Z,5.96
2016-11-03T03:37:31.131Z,6.01
2016-11-03T03:37:52.855Z,6.02
2016-11-03T03:38:14.583Z,6.00
2016-11-03T03:38:36.310Z,6.01
2016-11-03T03:38:58.037Z,6.02
2016-11-03T03:39:19.757Z,6.02
2016-11-03T03:39:41.487Z,6.00
2016-11-03T03:40:03.208Z,6.00
2016-11-03T03:40:24.980Z,5.98
2016-11-03T03:40:46.700Z,5.97
2016-11-03T03:41:08.426Z,5.92
2016-11-03T03:41:30.141Z,5.89
2016-11-03T03:41:56.638Z,5.82
2016-11-03T03:42:18.359Z,5.67
2016-11-03T03:42:40.072Z,5.58
2016-11-03T03:43:01.819Z,5.43
2016-11-03T03:43:23.534Z,5.39
2016-11-03T03:43:45.255Z,5.35
2016-11-03T03:44:06.975Z,5.32
2016-11-03T03:44:29.690Z,5.30
2016-11-03T03:44:51.413Z,5.37
2016-11-03T03:45:13.151Z,5.47
2016-11-03T03:45:34.867Z,5.52
2016-11-03T03:45:56.589Z,5.51
2016-11-03T03:46:18.313Z,5.52
2016-11-03T03:46:40.164Z,5.50
2016-11-03T03:47:01.895Z,5.52
2016-11-03T03:47:23.641Z,5.52
2016-11-03T03:47:45.380Z,5.52
2016-11-03T03:48:07.109Z,5.46
2016-11-03T03:48:28.833Z,5.49
2016-11-03T03:48:50.558Z,5.59
2016-11-03T03:49:12.296Z,5.67
2016-11-03T03:49:34.032Z,5.69
2016-11-03T03:49:55.759Z,5.64
2016-11-03T03:50:17.476Z,5.53
2016-11-03T03:50:39.195Z,5.48
2016-11-03T03:51:00.933Z,5.55
2016-11-03T03:51:22.752Z,5.49
2016-11-03T03:51:44.471Z,5.50
2016-11-03T03:52:06.196Z,5.52
2016-11-03T03:52:27.916Z,5.52
2016-11-03T03:52:49.646Z,5.48
2016-11-03T03:53:11.367Z,5.41
2016-11-03T03:54:11.872Z,5.43
2016-11-03T03:54:33.606Z,5.42
2016-11-03T03:54:55.324Z,5.45
2016-11-03T03:55:17.048Z,5.48
2016-11-03T03:55:38.765Z,5.54
2016-11-03T03:56:00.483Z,5.46
2016-11-03T03:56:22.202Z,5.49
2016-11-03T03:56:43.921Z,5.49
2016-11-03T03:57:05.641Z,5.55
2016-11-03T03:57:27.350Z,5.56
2016-11-03T03:57:49.066Z,5.60
2016-11-03T03:58:10.788Z,5.63
2016-11-03T03:58:32.514Z,5.67
2016-11-03T03:58:54.235Z,5.57
2016-11-03T03:59:15.956Z,5.57
2016-11-03T03:59:37.696Z,5.46
2016-11-03T03:59:59.414Z,5.51
2016-11-03T04:00:21.137Z,5.58
2016-11-03T04:00:42.855Z,5.53
2016-11-03T04:01:04.576Z,5.55
2016-11-03T04:01:27.287Z,5.51
2016-11-03T04:01:49.008Z,5.53
2016-11-03T04:02:10.724Z,5.50
2016-11-03T04:02:32.447Z,5.48
2016-11-03T04:02:54.171Z,5.45
2016-11-03T04:03:15.895Z,5.51
2016-11-03T04:03:37.620Z,5.58
2016-11-03T04:03:59.340Z,5.57
2016-11-03T04:04:21.060Z,5.49
2016-11-03T04:05:09.270Z,5.56
2016-11-03T04:05:30.990Z,5.61
2016-11-03T04:05:52.718Z,5.64
2016-11-03T04:06:14.443Z,5.68
2016-11-03T04:06:36.167Z,5.65
2016-11-03T04:07:02.659Z,5.62
2016-11-03T04:07:24.380Z,5.57
2016-11-03T04:07:46.110Z,5.52
2016-11-03T04:08:07.840Z,5.53
2016-11-03T04:08:29.564Z,5.51
2016-11-03T04:08:51.302Z,5.50
2016-11-03T04:09:13.033Z,5.44
2016-11-03T04:09:34.758Z,5.43
2016-11-03T04:09:56.475Z,5.44
2016-11-03T04:10:18.194Z,5.47
2016-11-03T04:10:39.957Z,5.48
2016-11-03T04:11:01.667Z,5.53
2016-11-03T04:11:29.174Z,5.54
2016-11-03T04:12:08.016Z,5.55
2016-11-03T04:12:42.288Z,5.50
2016-11-03T04:13:04.022Z,5.48
2016-11-03T04:13:25.768Z,5.48
2016-11-03T04:13:47.493Z,5.39
2016-11-03T04:14:09.228Z,5.37
2016-11-03T04:14:33.785Z,5.41
2016-11-03T04:14:55.511Z,5.48
2016-11-03T04:15:23.082Z,5.43
2016-11-03T04:15:47.871Z,5.39
2016-11-03T04:16:43.408Z,5.45
2016-11-03T04:17:21.565Z,5.40
2016-11-03T04:18:37.048Z,5.32
2016-11-03T04:18:58.777Z,5.30
2016-11-03T04:19:22.530Z,5.29
2016-11-03T04:19:47.866Z,5.27
2016-11-03T04:20:09.606Z,5.26
2016-11-03T04:20:31.340Z,5.27
2016-11-03T04:20:58.462Z,5.16
2016-11-03T04:21:24.959Z,5.29
2016-11-03T04:21:49.300Z,5.28
2016-11-03T04:22:20.532Z,5.30
2016-11-03T04:22:42.255Z,5.30
2016-11-03T04:23:03.974Z,5.27
2016-11-03T04:23:26.707Z,5.26
2016-11-03T04:23:48.426Z,5.29
2016-11-03T04:24:10.163Z,5.28
2016-11-03T04:24:31.888Z,5.32
2016-11-03T04:24:53.606Z,5.23
2016-11-03T04:25:15.327Z,5.20
2016-11-03T04:25:37.047Z,5.27
2016-11-03T04:25:58.763Z,5.17
2016-11-03T04:26:20.483Z,5.14
2016-11-03T04:26:42.209Z,5.16
2016-11-03T04:27:03.920Z,5.21
2016-11-03T04:27:25.640Z,5.27
2016-11-03T04:27:47.366Z,5.33
2016-11-03T04:28:09.102Z,5.31
2016-11-03T04:28:30.835Z,5.25
2016-11-03T04:29:00.156Z,5.32
2016-11-03T04:29:26.869Z,5.29
2016-11-03T04:29:50.501Z,5.31
2016-11-03T04:30:12.238Z,5.27
2016-11-03T04:30:36.336Z,5.18
2016-11-03T04:30:58.094Z,5.21
2016-11-03T04:31:19.870Z,5.24
2016-11-03T04:31:44.323Z,5.23
2016-11-03T04:32:05.930Z,5.25
2016-11-03T04:32:27.691Z,5.23
2016-11-03T04:32:49.419Z,5.31
2016-11-03T04:33:11.139Z,5.37
2016-11-03T04:33:32.866Z,5.33
2016-11-03T04:33:54.600Z,5.30
2016-11-03T04:34:16.353Z,5.30
2016-11-03T04:34:38.079Z,5.26
2016-11-03T04:34:59.798Z,5.18
2016-11-03T04:35:21.527Z,5.14
2016-11-03T04:35:45.867Z,5.13
2016-11-03T04:36:07.599Z,5.08
2016-11-03T04:36:29.326Z,5.05
2016-11-03T04:36:51.056Z,5.03
2016-11-03T04:37:12.779Z,5.03
2016-11-03T04:37:36.506Z,5.03
2016-11-03T04:37:58.246Z,5.12
2016-11-03T04:38:22.729Z,5.16
2016-11-03T04:38:44.461Z,5.18
2016-11-03T04:39:06.185Z,5.23
2016-11-03T04:39:27.916Z,5.25
2016-11-03T04:39:49.686Z,5.19
2016-11-03T04:40:16.174Z,5.17
2016-11-03T04:40:37.926Z,5.23
2016-11-03T04:41:05.001Z,5.29
2016-11-03T04:41:26.743Z,5.32
2016-11-03T04:41:48.500Z,5.36
2016-11-03T04:42:10.224Z,5.33
2016-11-03T04:42:34.766Z,5.32
2016-11-03T04:42:56.485Z,5.31
2016-11-03T04:43:18.215Z,5.28
2016-11-03T04:43:44.844Z,5.13
2016-11-03T04:44:13.897Z,5.05
2016-11-03T04:44:42.390Z,5.07
2016-11-03T04:45:08.789Z,5.05
2016-11-03T04:46:18.667Z,5.21
2016-11-03T04:48:26.755Z,4.95
2016-11-03T04:48:55.678Z,4.97
2016-11-03T04:49:27.442Z,5.01
2016-11-03T04:49:54.573Z,4.95
2016-11-03T04:50:44.872Z,4.85
2016-11-03T04:51:11.267Z,4.90
2016-11-03T04:51:35.115Z,4.89
2016-11-03T04:52:01.474Z,4.82
2016-11-03T04:52:27.998Z,4.89
2016-11-03T04:52:59.281Z,4.96
2016-11-03T04:53:35.667Z,4.98
2016-11-03T04:54:09.462Z,4.87
2016-11-03T04:54:40.153Z,4.95
2016-11-03T04:55:13.794Z,5.00
2016-11-03T04:56:32.620Z,5.00
2016-11-03T05:00:50.367Z,4.98
2016-11-03T05:00:55.802Z,4.95
2016-11-03T05:01:12.084Z,4.86
2016-11-03T05:01:33.814Z,4.86
2016-11-03T05:01:55.546Z,4.92
2016-11-03T05:02:17.275Z,4.93
2016-11-03T05:02:38.994Z,4.95
2016-11-03T05:03:00.744Z,4.97
2016-11-03T05:03:22.471Z,4.90
2016-11-03T05:03:44.204Z,4.89
2016-11-03T05:04:05.927Z,4.85
2016-11-03T05:04:27.672Z,4.84
2016-11-03T05:04:49.392Z,4.86
2016-11-03T05:05:15.901Z,4.84
2016-11-03T05:05:37.628Z,4.86
2016-11-03T05:05:59.358Z,4.99
2016-11-03T05:06:21.089Z,5.03
2016-11-03T05:06:42.935Z,4.99
2016-11-03T05:07:04.660Z,4.96
2016-11-03T05:07:28.593Z,4.94
2016-11-03T05:07:50.318Z,4.94
2016-11-03T05:08:12.048Z,5.00
2016-11-03T05:08:33.773Z,4.98
2016-11-03T05:09:09.680Z,4.97
2016-11-03T05:10:47.608Z,5.15
2016-11-03T05:11:09.348Z,5.07
2016-11-03T05:13:20.093Z,5.07
2016-11-03T05:13:41.819Z,5.09
2016-11-03T05:14:03.552Z,5.07
2016-11-03T05:14:25.285Z,5.13
2016-11-03T05:14:47.047Z,5.14
2016-11-03T05:15:08.832Z,5.12
2016-11-03T05:15:30.551Z,5.02
2016-11-03T05:15:52.286Z,4.94
2016-11-03T05:16:14.023Z,4.98
2016-11-03T05:16:35.770Z,5.02
2016-11-03T05:16:57.527Z,5.04
2016-11-03T05:17:19.356Z,5.06
2016-11-03T05:18:24.455Z,5.02
2016-11-03T05:18:46.179Z,4.97
2016-11-03T05:19:07.902Z,4.97
2016-11-03T05:19:29.621Z,4.96
2016-11-03T05:19:51.347Z,4.99
2016-11-03T05:20:13.080Z,4.95
2016-11-03T05:20:34.803Z,4.93
2016-11-03T05:20:56.530Z,4.96
2016-11-03T05:21:18.260Z,4.96
2016-11-03T05:21:39.997Z,4.95
2016-11-03T05:22:01.729Z,4.99
2016-11-03T05:22:23.448Z,5.03
2016-11-03T05:22:45.187Z,5.06
2016-11-03T05:23:06.917Z,5.02
2016-11-03T05:23:28.657Z,5.03
2016-11-03T05:23:50.362Z,5.10
2016-11-03T05:24:12.096Z,5.11
2016-11-03T05:24:33.815Z,5.07
2016-11-03T05:24:55.561Z,5.09
2016-11-03T05:25:17.289Z,5.06
2016-11-03T05:25:39.021Z,5.05
2016-11-03T05:26:00.750Z,5.03
2016-11-03T05:26:22.479Z,5.03
2016-11-03T05:26:44.204Z,5.00
2016-11-03T05:27:05.947Z,4.94
2016-11-03T05:27:27.689Z,4.95
2016-11-03T05:27:49.410Z,5.01
2016-11-03T05:28:11.144Z,5.02
2016-11-03T05:28:32.875Z,5.04
2016-11-03T05:28:54.606Z,5.05
2016-11-03T05:29:16.337Z,5.07
2016-11-03T05:29:38.084Z,5.15
2016-11-03T05:29:59.816Z,5.09
2016-11-03T05:30:21.609Z,5.18
2016-11-03T05:30:43.328Z,5.17
2016-11-03T05:31:05.052Z,5.17
2016-11-03T05:31:26.775Z,5.11
2016-11-03T05:32:19.770Z,5.12
2016-11-03T05:32:41.489Z,5.05
2016-11-03T05:33:03.303Z,4.99
2016-11-03T05:33:34.376Z,4.97
2016-11-03T05:33:56.096Z,5.00
2016-11-03T05:34:17.821Z,5.06
2016-11-03T05:34:39.555Z,5.06
2016-11-03T05:35:01.365Z,5.05
2016-11-03T05:35:23.097Z,5.12
2016-11-03T05:35:44.817Z,5.09
2016-11-03T05:36:06.566Z,5.04
2016-11-03T05:36:28.382Z,5.04
2016-11-03T05:36:50.114Z,5.00
2016-11-03T05:37:11.846Z,4.99
2016-11-03T05:37:33.566Z,5.04
2016-11-03T05:37:55.379Z,5.12
2016-11-03T05:38:17.098Z,5.09
2016-11-03T05:39:13.073Z,5.14
2016-11-03T05:39:34.809Z,5.07
2016-11-03T05:39:56.545Z,5.08
2016-11-03T05:40:18.275Z,5.15
2016-11-03T05:40:40.011Z,5.13
2016-11-03T05:41:01.738Z,5.10
2016-11-03T05:41:23.457Z,5.08
2016-11-03T05:41:45.195Z,5.04
2016-11-03T05:42:06.921Z,5.01
2016-11-03T05:42:28.652Z,5.02
2016-11-03T05:42:50.377Z,5.11
2016-11-03T05:43:12.096Z,5.13
2016-11-03T05:43:33.814Z,5.13
2016-11-03T05:43:55.546Z,5.13
2016-11-03T05:44:17.282Z,5.09
2016-11-03T05:44:39.008Z,5.06
2016-11-03T05:45:00.740Z,5.05
2016-11-03T05:45:22.458Z,5.01
2016-11-03T05:45:44.180Z,5.01
2016-11-03T05:46:05.905Z,5.09
2016-11-03T05:46:27.632Z,5.15
2016-11-03T05:47:31.011Z,5.27
2016-11-03T05:47:52.729Z,5.27
2016-11-03T05:48:14.458Z,5.19
2016-11-03T05:48:36.179Z,5.15
2016-11-03T05:48:57.902Z,5.12
2016-11-03T05:49:19.635Z,5.15
2016-11-03T05:49:41.431Z,5.14
2016-11-03T05:50:06.007Z,5.15
2016-11-03T05:50:27.739Z,5.19
2016-11-03T05:50:49.458Z,5.19
2016-11-03T05:51:11.264Z,5.11
2016-11-03T05:51:32.985Z,5.11
2016-11-03T05:51:54.707Z,5.09
2016-11-03T05:52:16.433Z,5.18
2016-11-03T05:52:38.228Z,5.21
2016-11-03T05:52:59.965Z,5.27
2016-11-03T05:53:21.691Z,5.31
2016-11-03T05:53:43.426Z,5.29
2016-11-03T05:54:05.253Z,5.26
2016-11-03T05:54:26.976Z,5.20
2016-11-03T05:54:48.715Z,5.23
2016-11-03T05:55:10.439Z,5.29
2016-11-03T05:55:32.249Z,5.35
2016-11-03T05:55:53.966Z,5.30
2016-11-03T05:56:15.705Z,5.31
2016-11-03T05:56:37.435Z,5.29
2016-11-03T05:56:59.164Z,5.35
2016-11-03T05:57:20.896Z,5.35
2016-11-03T05:57:42.625Z,5.34
2016-11-03T05:58:04.362Z,5.31
2016-11-03T05:58:26.163Z,5.28
2016-11-03T05:58:47.896Z,5.30
2016-11-03T05:59:09.620Z,5.31